createdAt,value
2023-11-15T00:02:15.744Z,1.60
2023-11-15T00:07:21.548Z,0.70
2023-11-15T00:12:32.910Z,0.70
2023-11-15T00:17:39.096Z,1.30
2023-11-15T00:22:45.322Z,0.60
2023-11-15T00:27:56.593Z,1.00
2023-11-15T00:33:03.213Z,1.67
2023-11-15T00:38:09.355Z,3.97
2023-11-15T00:43:20.232Z,4.18
2023-11-15T00:48:26.177Z,4.40
2023-11-15T00:53:31.683Z,4.30
2023-11-15T00:58:40.636Z,3.97
2023-11-15T01:03:57.437Z,3.78
2023-11-15T01:09:06.009Z,4.25
2023-11-15T01:14:14.993Z,3.80
2023-11-15T01:19:20.636Z,3.95
2023-11-15T01:24:27.760Z,3.30
2023-11-15T01:29:35.847Z,3.75
2023-11-15T01:34:41.962Z,3.03
2023-11-15T01:39:47.493Z,4.23
2023-11-15T01:44:55.878Z,4.03
2023-11-15T01:50:04.768Z,4.53
2023-11-15T01:55:14.189Z,4.05
2023-11-15T02:00:22.705Z,3.95
2023-11-15T02:05:28.969Z,4.20
2023-11-15T02:10:34.947Z,3.90
2023-11-15T02:15:43.149Z,3.57
2023-11-15T02:20:48.732Z,4.43
2023-11-15T02:25:57.118Z,4.18
2023-11-15T02:31:02.769Z,3.53
2023-11-15T02:36:11.678Z,4.43
2023-11-15T02:41:19.890Z,3.77
2023-11-15T02:46:26.278Z,3.50
2023-11-15T02:51:31.825Z,3.47
2023-11-15T02:56:39.889Z,4.20
2023-11-15T03:01:52.561Z,3.33
2023-11-15T03:06:58.080Z,3.23
2023-11-15T03:12:06.720Z,3.60
2023-11-15T03:17:18.854Z,3.60
2023-11-15T03:22:24.852Z,3.33
2023-11-15T03:27:33.460Z,3.97
2023-11-15T03:32:39.313Z,3.53
2023-11-15T03:37:53.319Z,3.95
2023-11-15T03:43:02.054Z,3.28
2023-11-15T03:48:07.938Z,3.53
2023-11-15T03:53:14.050Z,3.20
2023-11-15T03:58:22.291Z,3.60
2023-11-15T04:03:27.962Z,2.80
2023-11-15T04:08:33.948Z,3.20
2023-11-15T04:13:42.349Z,2.93
2023-11-15T04:18:48.136Z,2.88
2023-11-15T04:23:55.172Z,3.55
2023-11-15T04:29:03.247Z,3.20
2023-11-15T04:34:08.944Z,3.05
2023-11-15T04:39:14.717Z,2.60
2023-11-15T04:44:24.497Z,3.35
2023-11-15T04:49:30.028Z,2.55
2023-11-15T04:54:35.787Z,3.37
2023-11-15T04:59:43.995Z,2.83
2023-11-15T05:04:52.030Z,2.73
2023-11-15T05:09:59.058Z,2.13
2023-11-15T05:15:08.059Z,3.45
2023-11-15T05:20:14.891Z,2.47
2023-11-15T05:25:22.627Z,2.67
2023-11-15T05:30:30.634Z,2.27
2023-11-15T05:35:36.104Z,2.77
2023-11-15T05:40:41.601Z,2.70
2023-11-15T05:45:49.705Z,2.07
2023-11-15T05:50:55.381Z,2.22
2023-11-15T05:56:00.914Z,1.90
2023-11-15T06:01:09.081Z,1.47
2023-11-15T06:06:14.522Z,2.08
2023-11-15T06:11:20.246Z,2.03
2023-11-15T06:16:28.454Z,2.45
2023-11-15T06:21:34.809Z,2.10
2023-11-15T06:26:40.979Z,2.50
2023-11-15T06:31:52.759Z,2.00
2023-11-15T06:37:00.017Z,2.50
2023-11-15T06:42:08.036Z,2.22
2023-11-15T06:47:17.249Z,2.40
2023-11-15T06:52:22.693Z,2.90
2023-11-15T06:57:28.303Z,2.65
2023-11-15T07:02:36.403Z,3.30
2023-11-15T07:07:42.028Z,2.78
2023-11-15T07:12:48.926Z,3.10
2023-11-15T07:17:57.823Z,2.80
2023-11-15T07:23:03.968Z,2.88
2023-11-15T07:28:11.304Z,2.97
2023-11-15T07:33:21.109Z,3.80
2023-11-15T07:38:27.874Z,3.20
2023-11-15T07:43:33.620Z,3.20
2023-11-15T07:48:42.434Z,3.65
2023-11-15T07:53:50.470Z,3.27
2023-11-15T07:58:56.294Z,3.00
2023-11-15T08:04:05.432Z,2.53
2023-11-15T08:09:12.875Z,3.10
2023-11-15T08:14:19.031Z,3.10
2023-11-15T08:19:27.493Z,2.40
2023-11-15T08:24:34.528Z,2.80
2023-11-15T08:29:40.007Z,2.78
2023-11-15T08:34:48.270Z,2.53
2023-11-15T08:39:53.773Z,2.33
2023-11-15T08:44:59.371Z,3.00
2023-11-15T08:50:09.636Z,3.05
2023-11-15T08:55:15.946Z,2.80
2023-11-15T09:00:22.976Z,2.70
2023-11-15T09:05:31.008Z,2.05
2023-11-15T09:10:36.430Z,3.27
2023-11-15T09:15:42.616Z,2.75
2023-11-15T09:20:51.182Z,2.20
2023-11-15T09:26:00.434Z,2.63
2023-11-15T09:31:06.736Z,2.55
2023-11-15T09:36:15.548Z,2.15
2023-11-15T09:41:21.419Z,2.80
2023-11-15T09:46:31.598Z,1.60
2023-11-15T09:51:41.789Z,2.17
2023-11-15T09:56:51.021Z,2.63
2023-11-15T10:01:58.837Z,2.00
2023-11-15T10:07:08.737Z,2.37
2023-11-15T10:12:17.569Z,2.33
2023-11-15T10:17:24.284Z,2.00
2023-11-15T10:22:32.306Z,2.03
2023-11-15T10:27:41.042Z,1.98
2023-11-15T10:32:50.806Z,2.43
2023-11-15T10:38:00.234Z,1.92
2023-11-15T10:43:06.518Z,2.03
2023-11-15T10:48:16.857Z,1.83
2023-11-15T10:53:28.565Z,1.90
2023-11-15T10:58:35.069Z,1.83
2023-11-15T11:03:42.441Z,1.90
2023-11-15T11:09:00.336Z,2.45
2023-11-15T11:14:22.565Z,2.00
2023-11-15T11:19:29.039Z,1.95
2023-11-15T11:24:39.978Z,1.80
2023-11-15T11:30:17.839Z,2.17
2023-11-15T11:35:36.422Z,2.40
2023-11-15T11:40:47.757Z,1.80
2023-11-15T11:45:55.251Z,1.70
2023-11-15T11:51:05.088Z,1.70
2023-11-15T11:56:15.284Z,2.60
2023-11-15T12:01:21.040Z,1.52
2023-11-15T12:06:26.851Z,2.20
2023-11-15T12:11:34.969Z,1.60
2023-11-15T12:16:40.655Z,1.60
2023-11-15T12:21:47.674Z,1.50
2023-11-15T12:26:55.927Z,1.47
2023-11-15T12:32:05.050Z,1.73
2023-11-15T12:37:10.801Z,1.40
2023-11-15T12:42:29.587Z,2.10
2023-11-15T12:47:35.157Z,1.50
2023-11-15T12:52:45.152Z,2.47
2023-11-15T12:57:56.825Z,1.42
2023-11-15T13:03:02.617Z,1.45
2023-11-15T13:08:10.099Z,1.70
2023-11-15T13:13:18.512Z,1.92
2023-11-15T13:18:24.465Z,1.73
2023-11-15T13:23:30.502Z,1.50
2023-11-15T13:28:40.699Z,1.80
2023-11-15T13:33:48.931Z,1.60
2023-11-15T13:38:55.218Z,1.30
2023-11-15T13:44:03.356Z,1.67
2023-11-15T13:49:10.060Z,1.40
2023-11-15T13:54:20.952Z,1.50
2023-11-15T13:59:33.151Z,1.48
2023-11-15T14:04:39.194Z,1.97
2023-11-15T14:09:45.274Z,1.25
2023-11-15T14:14:54.137Z,1.40
2023-11-15T14:19:59.991Z,1.40
2023-11-15T14:25:08.852Z,1.27
2023-11-15T14:30:20.078Z,1.70
2023-11-15T14:35:26.520Z,1.00
2023-11-15T14:40:32.124Z,1.23
2023-11-15T14:45:40.185Z,1.20
2023-11-15T14:50:46.010Z,1.23
2023-11-15T14:55:52.359Z,1.50
2023-11-15T15:01:00.699Z,1.37
2023-11-15T15:06:07.290Z,1.10
2023-11-15T15:11:13.115Z,1.23
2023-11-15T15:16:23.160Z,1.03
2023-11-15T15:21:28.717Z,0.80
2023-11-15T15:26:34.260Z,0.95
2023-11-15T15:31:43.005Z,0.90
2023-11-15T15:36:48.479Z,1.00
2023-11-15T15:41:57.158Z,0.70
2023-11-15T15:47:05.392Z,1.13
2023-11-15T15:52:12.918Z,0.80
2023-11-15T15:57:18.385Z,1.30
2023-11-15T16:02:26.587Z,1.10
2023-11-15T16:07:33.119Z,0.98
2023-11-15T16:12:38.799Z,1.40
2023-11-15T16:17:50.757Z,1.40
2023-11-15T16:22:57.920Z,1.50
2023-11-15T16:28:04.342Z,1.40
2023-11-15T16:33:12.902Z,1.50
2023-11-15T16:38:18.830Z,1.70
2023-11-15T16:43:26.719Z,1.75
2023-11-15T16:48:34.932Z,1.38
2023-11-15T16:53:43.759Z,1.60
2023-11-15T16:58:49.451Z,1.35
2023-11-15T17:03:58.202Z,1.48
2023-11-15T17:09:04.921Z,1.10
2023-11-15T17:14:12.967Z,1.30
2023-11-15T17:19:22.846Z,1.67
2023-11-15T17:24:28.433Z,1.23
2023-11-15T17:29:33.982Z,1.27
2023-11-15T17:34:43.222Z,1.27
2023-11-15T17:39:49.065Z,1.05
2023-11-15T17:44:57.481Z,1.40
2023-11-15T17:50:06.165Z,1.70
2023-11-15T17:55:15.570Z,1.38
2023-11-15T18:00:24.591Z,1.38
2023-11-15T18:05:33.151Z,1.87
2023-11-15T18:10:38.946Z,1.48
2023-11-15T18:15:44.842Z,1.70
2023-11-15T18:20:54.457Z,2.03
2023-11-15T18:25:59.891Z,2.50
2023-11-15T18:31:07.725Z,2.03
2023-11-15T18:36:16.184Z,1.80
2023-11-15T18:41:24.440Z,2.20
2023-11-15T18:46:30.472Z,2.70
2023-11-15T18:51:38.639Z,2.50
2023-11-15T18:56:44.265Z,2.30
2023-11-15T19:01:51.364Z,2.60
2023-11-15T19:07:00.295Z,2.40
2023-11-15T19:12:08.487Z,2.20
2023-11-15T19:17:14.258Z,1.60
2023-11-15T19:22:22.763Z,1.80
2023-11-15T19:27:29.395Z,2.00
2023-11-15T19:32:35.673Z,1.73
2023-11-15T19:37:44.703Z,2.00
2023-11-15T19:42:50.168Z,2.30
2023-11-15T19:47:56.585Z,1.55
2023-11-15T19:53:08.647Z,1.60
2023-11-15T19:58:14.291Z,2.55
2023-11-15T20:03:20.378Z,2.13
2023-11-15T20:08:28.750Z,1.67
2023-11-15T20:13:34.141Z,1.80
2023-11-15T20:18:43.621Z,2.00
2023-11-15T20:23:54.197Z,2.00
2023-11-15T20:28:59.833Z,1.83
2023-11-15T20:34:07.123Z,1.53
2023-11-15T20:39:22.193Z,1.65
2023-11-15T20:44:30.501Z,1.77
2023-11-15T20:49:37.478Z,1.80
2023-11-15T20:54:45.942Z,2.05
2023-11-15T20:59:53.395Z,1.53
2023-11-15T21:05:00.733Z,2.08
2023-11-15T21:10:12.694Z,2.43
2023-11-15T21:15:18.423Z,1.80
2023-11-15T21:20:24.157Z,1.83
2023-11-15T21:25:32.317Z,1.60
2023-11-15T21:30:38.376Z,1.90
2023-11-15T21:35:45.601Z,1.70
2023-11-15T21:40:54.162Z,1.73
2023-11-15T21:46:00.391Z,1.95
2023-11-15T21:51:06.671Z,1.50
2023-11-15T21:56:14.879Z,1.65
2023-11-15T22:01:20.542Z,1.83
2023-11-15T22:06:27.202Z,1.80
2023-11-15T22:11:35.430Z,1.55
2023-11-15T22:16:41.238Z,1.53
2023-11-15T22:21:48.889Z,2.13
2023-11-15T22:26:57.426Z,1.37
2023-11-15T22:32:02.878Z,1.80
2023-11-15T22:37:08.746Z,1.63
2023-11-15T22:42:19.444Z,1.53
2023-11-15T22:47:25.081Z,1.73
2023-11-15T22:52:30.506Z,1.73
2023-11-15T22:57:38.588Z,1.65
2023-11-15T23:02:44.227Z,1.83
2023-11-15T23:07:49.777Z,1.20
2023-11-15T23:12:58.343Z,1.92
2023-11-15T23:18:05.080Z,1.50
2023-11-15T23:23:11.457Z,1.40
2023-11-15T23:28:19.528Z,1.52
2023-11-15T23:33:25.294Z,1.67
2023-11-15T23:38:30.826Z,1.98
2023-11-15T23:43:39.161Z,1.50
2023-11-15T23:48:44.643Z,1.70
2023-11-15T23:53:50.268Z,2.15
2023-11-15T23:58:58.719Z,1.23
